Puerto del Rosario, Spain
Current Conditions -  °F | °C
As of 2:00 PM on Thursday 29 Jan 2015 (Local Time) from GCFV Reporting Station
Broken Clouds Broken Clouds  
Wind Chill: 19°   Ceiling: 4200
Heat Index: 19°   Visibility: 6mi
Dew Point: 12°   Wind: 16mph
Humidity: 64%   Direction: 40°NE
Pressure: 30.27"   Gusts: NA
Location:  28.5°N, 13.86°W
Report Text: GCFV 291400Z 04014KT 9999 BKN042 19/12 Q1025
Loading
Personal Weather Stations






























Interactive Weather Map New forecast layout! Learn more

10-Day Weather Forecast

Advertisements
Track Severe Weather on mobile